createdAt,value
2023-05-22T07:21:33.397Z,98297.47
2023-05-22T07:31:40.435Z,98339.00
2023-05-22T07:41:51.639Z,98331.25
2023-05-22T07:51:59.014Z,98316.53
2023-05-22T08:02:06.545Z,98298.50
2023-05-22T08:12:13.109Z,98318.66
2023-05-22T08:22:20.308Z,98312.03
2023-05-22T08:32:28.145Z,98306.28
2023-05-22T08:42:35.942Z,98309.69
2023-05-22T08:52:52.523Z,98305.59
2023-05-22T09:02:59.197Z,98287.41
2023-05-22T09:13:06.685Z,98267.28
2023-05-22T09:23:19.187Z,98283.03
2023-05-22T09:33:26.088Z,98255.84
2023-05-22T09:43:32.852Z,98232.91
2023-05-22T09:53:41.027Z,98261.28
2023-05-22T10:03:49.633Z,98231.97
2023-05-22T10:13:56.551Z,98232.84
2023-05-22T10:24:03.259Z,98200.03
2023-05-22T10:34:12.918Z,98245.81
2023-05-22T10:44:19.810Z,98235.03
2023-05-22T10:54:42.796Z,98205.50
2023-05-22T11:04:49.675Z,98239.13
2023-05-22T11:15:00.145Z,98222.16
2023-05-22T11:25:18.032Z,98190.28
2023-05-22T11:35:24.548Z,98218.69
2023-05-22T11:45:31.076Z,98208.06
2023-05-22T11:55:38.172Z,98205.53
2023-05-22T12:05:47.514Z,98163.91
2023-05-22T12:15:59.709Z,98175.50
2023-05-22T12:26:10.972Z,98162.78
2023-05-22T12:36:17.556Z,98189.84
2023-05-22T12:46:24.135Z,98193.88
2023-05-22T12:56:31.325Z,98189.81
2023-05-22T13:06:37.870Z,98180.88
2023-05-22T13:16:44.632Z,98171.34
2023-05-22T13:26:51.617Z,98165.09
2023-05-22T13:36:58.128Z,98139.53
2023-05-22T13:47:05.047Z,98124.59
2023-05-22T13:57:11.700Z,98138.75
2023-05-22T14:07:18.263Z,98117.87
2023-05-22T14:17:25.107Z,98123.31
2023-05-22T14:27:32.168Z,98121.09
2023-05-22T14:37:38.754Z,98106.81
2023-05-22T14:47:45.403Z,98110.56
2023-05-22T14:57:51.912Z,98109.28
2023-05-22T15:08:01.284Z,98104.09
2023-05-22T15:18:07.928Z,98111.16
2023-05-22T15:28:14.693Z,98104.72
2023-05-22T15:38:21.540Z,98099.62
2023-05-22T15:48:28.210Z,98102.09
2023-05-22T15:58:34.892Z,98097.09
2023-05-22T16:08:41.449Z,98108.31
2023-05-22T16:18:48.047Z,98093.88
2023-05-22T16:28:54.581Z,98093.41
2023-05-22T16:39:01.068Z,98103.50
2023-05-22T16:49:07.630Z,98097.13
2023-05-22T16:59:14.495Z,98120.72
2023-05-22T17:09:22.062Z,98134.84
2023-05-22T17:19:28.614Z,98139.53
2023-05-22T17:29:35.202Z,98142.91
2023-05-22T17:39:41.752Z,98143.00
2023-05-22T17:49:48.243Z,98143.56
2023-05-22T17:59:54.753Z,98141.06
2023-05-22T18:10:01.330Z,98121.91
2023-05-22T18:20:09.554Z,98105.84
2023-05-22T18:30:16.179Z,98060.59
2023-05-22T18:40:22.771Z,98049.25
2023-05-22T18:50:29.285Z,98021.94
2023-05-22T19:00:36.177Z,98007.47
2023-05-22T19:10:43.221Z,97990.09
2023-05-22T19:20:49.898Z,97990.31
2023-05-22T19:30:59.019Z,97971.97
2023-05-22T19:41:05.626Z,97927.47
2023-05-22T19:51:12.297Z,97879.66
2023-05-22T20:01:18.920Z,97928.09
2023-05-22T20:11:25.465Z,97919.94
2023-05-22T20:21:32.348Z,97873.59
2023-05-22T20:31:38.985Z,97878.34
2023-05-22T20:41:45.507Z,97825.34
2023-05-22T20:51:53.249Z,97823.28
2023-05-22T21:02:00.025Z,97831.31
2023-05-22T21:12:06.676Z,97831.59
2023-05-22T21:22:13.218Z,97910.84
2023-05-22T21:32:19.815Z,98016.91
2023-05-22T21:42:26.438Z,98105.00
2023-05-22T21:52:32.965Z,98114.41
2023-05-22T22:02:39.588Z,98167.50
2023-05-22T22:12:46.187Z,98285.87
2023-05-22T22:22:52.931Z,98262.41
2023-05-22T22:32:59.586Z,97982.03
2023-05-22T22:43:06.426Z,97994.75
2023-05-22T22:53:12.959Z,97987.78
2023-05-22T23:03:19.636Z,97730.72
2023-05-22T23:13:26.777Z,97738.69
2023-05-22T23:23:33.513Z,97746.19
2023-05-22T23:33:40.071Z,97750.34
2023-05-22T23:43:47.217Z,97747.41
2023-05-22T23:53:53.759Z,97749.22
